Time;durP1;ratioP1;P1;durP2;ratioP2;P2;SDS_P1;SDS_P2;PMS_P1;PMS_P2;Temp;Humidity;BMP_temperature;BMP_pressure;BME280_temperature;BME280_humidity;BME280_pressure;Samples;Min_cycle;Max_cycle;Signal;HPM_P1;HPM_P2
2022/02/25 00:01:02;;;;;;;9.00;5.90;;;;;;;8.25;54.18;99681.48;108676;1273;23105;-79
2022/02/25 00:03:32;;;;;;;12.50;5.90;;;;;;;8.22;54.23;99681.55;108668;1273;21986;-79
2022/02/25 00:06:01;;;;;;;11.40;6.70;;;;;;;8.21;54.32;99679.12;108717;1271;22721;-80
2022/02/25 00:08:30;;;;;;;9.50;5.40;;;;;;;8.20;54.38;99678.17;108773;1273;23070;-79
2022/02/25 00:10:59;;;;;;;10.30;5.90;;;;;;;8.20;54.38;99678.30;108774;1272;23718;-80
2022/02/25 00:13:28;;;;;;;10.90;5.50;;;;;;;8.22;54.39;99676.20;108788;1273;21992;-80
2022/02/25 00:15:57;;;;;;;9.20;5.60;;;;;;;8.22;54.41;99674.05;108739;1273;24195;-81
2022/02/25 00:18:27;;;;;;;19.50;11.30;;;;;;;8.24;54.36;99673.72;108863;1270;22672;-79
2022/02/25 00:20:55;;;;;;;14.60;8.70;;;;;;;8.25;54.34;99675.16;108720;1272;23703;-78
2022/02/25 00:23:24;;;;;;;10.50;7.10;;;;;;;8.26;54.30;99673.64;108731;1272;21975;-79
2022/02/25 00:25:53;;;;;;;8.40;6.00;;;;;;;8.24;54.25;99672.46;108731;1272;22215;-79
2022/02/25 00:28:22;;;;;;;11.30;6.00;;;;;;;8.22;54.23;99672.64;108799;1273;23095;-79
2022/02/25 00:30:51;;;;;;;11.40;6.30;;;;;;;8.21;54.23;99674.75;108805;1273;23583;-79
2022/02/25 00:33:20;;;;;;;10.70;5.80;;;;;;;8.20;54.26;99676.06;108722;1273;22796;-79
2022/02/25 00:35:53;;;;;;;10.00;5.50;;;;;;;8.19;54.37;99672.95;108840;1272;23036;-79
2022/02/25 00:38:22;;;;;;;10.80;6.00;;;;;;;8.19;54.33;99673.34;108765;1272;23690;-79
2022/02/25 00:40:51;;;;;;;10.00;6.00;;;;;;;8.19;54.44;99677.22;108694;1272;23689;-79
2022/02/25 00:43:20;;;;;;;9.70;6.10;;;;;;;8.20;54.39;99678.83;108705;1273;21992;-79
2022/02/25 00:45:49;;;;;;;12.40;6.20;;;;;;;8.21;54.41;99683.53;108547;1274;22003;-80
2022/02/25 00:48:18;;;;;;;9.50;5.90;;;;;;;8.21;54.33;99685.98;108773;1272;23062;-79
2022/02/25 00:50:47;;;;;;;9.80;5.90;;;;;;;8.21;54.39;99685.30;108814;1270;21998;-79
2022/02/25 00:53:16;;;;;;;7.40;4.80;;;;;;;8.21;54.52;99685.37;108773;1273;21992;-79
2022/02/25 00:55:45;;;;;;;9.60;5.70;;;;;;;8.23;54.56;99684.48;108744;1270;22015;-79
2022/02/25 00:58:14;;;;;;;8.60;5.20;;;;;;;8.25;54.57;99689.54;108825;1271;23620;-80
2022/02/25 01:00:43;;;;;;;7.90;4.40;;;;;;;8.27;54.67;99690.91;108699;1272;22226;-79
2022/02/25 01:03:12;;;;;;;7.10;4.70;;;;;;;8.29;54.65;99691.01;108744;1273;22009;-79
2022/02/25 01:05:41;;;;;;;10.00;4.80;;;;;;;8.33;54.61;99691.52;108723;1273;23057;-80
2022/02/25 01:08:10;;;;;;;10.10;5.40;;;;;;;8.36;54.52;99694.17;108759;1273;21993;-80
2022/02/25 01:10:39;;;;;;;8.60;4.60;;;;;;;8.39;54.52;99701.65;108757;1270;22010;-79
2022/02/25 01:13:08;;;;;;;7.70;5.00;;;;;;;8.43;54.49;99702.80;108706;1273;23082;-80
2022/02/25 01:15:37;;;;;;;7.60;5.60;;;;;;;8.46;54.48;99712.11;108652;1273;22325;-79
2022/02/25 01:18:06;;;;;;;8.10;5.70;;;;;;;8.48;54.34;99712.23;108765;1273;24020;-79
2022/02/25 01:20:39;;;;;;;8.60;5.60;;;;;;;8.51;54.28;99721.15;108773;1273;23008;-79
2022/02/25 01:23:09;;;;;;;10.10;5.60;;;;;;;8.52;54.31;99728.34;108733;1271;23656;-79
2022/02/25 01:25:40;;;;;;;;;;;;;;;8.53;54.36;99737.00;108731;1272;21981;-80
2022/02/25 01:28:09;;;;;;;8.40;4.80;;;;;;;8.50;54.44;99748.27;108808;1270;23729;-79
2022/02/25 01:30:37;;;;;;;8.80;5.30;;;;;;;8.51;54.42;99749.40;108698;1273;22013;-79
2022/02/25 01:33:06;;;;;;;9.60;5.00;;;;;;;8.55;54.41;99759.33;108727;1272;22224;-80
2022/02/25 01:35:37;;;;;;;6.80;4.50;;;;;;;8.56;54.47;99769.02;108777;1270;22991;-79
2022/02/25 01:38:06;;;;;;;6.90;4.30;;;;;;;8.58;54.71;99784.23;108778;1270;23010;-80
2022/02/25 01:40:36;;;;;;;4.50;3.20;;;;;;;8.59;54.75;99796.52;108812;1273;23699;-79
2022/02/25 01:43:05;;;;;;;7.00;3.10;;;;;;;8.60;54.85;99792.02;108744;1270;23093;-79
2022/02/25 01:45:35;;;;;;;5.90;2.90;;;;;;;8.60;54.89;99790.20;108747;1270;23675;-79
2022/02/25 01:48:05;;;;;;;4.20;2.70;;;;;;;8.58;54.84;99784.40;108789;1270;22986;-79
2022/02/25 01:50:35;;;;;;;4.20;3.30;;;;;;;8.55;54.93;99781.20;108764;1270;23062;-80
2022/02/25 01:53:08;;;;;;;3.00;2.20;;;;;;;8.53;54.96;99782.86;108765;1273;23595;-80
2022/02/25 01:55:40;;;;;;;3.20;2.20;;;;;;;8.51;55.04;99783.92;108809;1270;21988;-79
2022/02/25 01:58:09;;;;;;;3.40;1.80;;;;;;;8.47;54.87;99794.73;108805;1273;22127;-79
2022/02/25 02:00:39;;;;;;;3.80;2.20;;;;;;;8.42;54.75;99802.42;108585;1273;21997;-79
2022/02/25 02:03:09;;;;;;;2.50;1.70;;;;;;;8.37;54.57;99803.13;108625;1273;22003;-80
2022/02/25 02:05:38;;;;;;;5.30;2.50;;;;;;;8.33;54.35;99800.27;108743;1271;22056;-79
2022/02/25 02:08:07;;;;;;;4.70;1.70;;;;;;;8.27;54.12;99797.17;108231;1279;22353;-80
2022/02/25 02:10:37;;;;;;;2.60;1.50;;;;;;;8.22;54.07;99807.92;108374;1278;21996;-80
2022/02/25 02:13:06;;;;;;;1.70;0.90;;;;;;;8.17;53.88;99819.05;108229;1281;22020;-79
2022/02/25 02:15:35;;;;;;;1.70;1.00;;;;;;;8.11;53.84;99833.52;108323;1278;22982;-78
2022/02/25 02:18:04;;;;;;;2.90;1.50;;;;;;;8.06;53.85;99830.39;108320;1280;21996;-79
2022/02/25 02:20:33;;;;;;;2.10;1.40;;;;;;;7.99;53.89;99836.50;108308;1279;22034;-79
2022/02/25 02:23:03;;;;;;;1.70;1.00;;;;;;;7.93;53.96;99848.22;108196;1280;23665;-79
2022/02/25 02:25:31;;;;;;;1.80;1.30;;;;;;;7.87;54.04;99855.16;108229;1273;22944;-78
2022/02/25 02:28:20;;;;;;;1.70;1.30;;;;;;;7.79;54.16;99867.73;108764;1270;21998;-78
2022/02/25 02:30:50;;;;;;;1.90;0.80;;;;;;;7.70;54.40;99874.69;108800;1273;21991;-78
2022/02/25 02:33:20;;;;;;;2.20;1.10;;;;;;;7.59;54.57;99879.02;108702;1270;21986;-80
2022/02/25 02:35:49;;;;;;;2.30;1.40;;;;;;;7.44;54.77;99885.77;108764;1273;22011;-78
2022/02/25 02:38:18;;;;;;;2.90;1.00;;;;;;;7.32;55.20;99895.64;108778;1270;23892;-78
2022/02/25 02:40:47;;;;;;;1.70;0.80;;;;;;;7.20;55.62;99905.02;108730;1273;21996;-79
2022/02/25 02:43:16;;;;;;;2.70;1.20;;;;;;;7.10;56.02;99907.27;108712;1273;21993;-78
2022/02/25 02:45:45;;;;;;;3.40;1.30;;;;;;;7.00;56.46;99907.41;108735;1273;22002;-78
2022/02/25 02:48:14;;;;;;;2.10;1.10;;;;;;;6.90;56.80;99912.86;108786;1272;22042;-78
2022/02/25 02:50:43;;;;;;;2.30;1.10;;;;;;;6.75;57.14;99918.83;108831;1270;22448;-80
2022/02/25 02:53:14;;;;;;;2.30;1.60;;;;;;;6.63;57.55;99933.39;108824;1270;22445;-78
2022/02/25 02:55:45;;;;;;;2.80;2.30;;;;;;;6.54;57.99;99947.38;108712;1270;23085;-78
2022/02/25 02:58:14;;;;;;;3.40;3.10;;;;;;;6.45;58.40;99953.70;108591;1273;22068;-79
2022/02/25 03:00:46;;;;;;;3.30;2.30;;;;;;;6.41;58.73;99952.72;108730;1273;22046;-79
2022/02/25 03:03:16;;;;;;;2.50;1.70;;;;;;;6.37;59.09;99961.50;108788;1273;23618;-79
2022/02/25 03:05:46;;;;;;;1.60;1.10;;;;;;;6.33;59.38;99967.64;108818;1270;24018;-79
2022/02/25 03:08:16;;;;;;;1.40;0.90;;;;;;;6.28;59.43;99969.06;108771;1270;22094;-79
2022/02/25 03:10:46;;;;;;;1.60;0.90;;;;;;;6.21;59.46;99972.20;108742;1273;22766;-80
2022/02/25 03:13:16;;;;;;;1.70;1.10;;;;;;;6.13;59.61;99977.30;108742;1271;22000;-79
2022/02/25 03:15:46;;;;;;;2.20;1.10;;;;;;;6.05;59.68;99982.05;108801;1270;21989;-78
2022/02/25 03:18:15;;;;;;;1.40;1.00;;;;;;;5.99;59.83;99995.27;108777;1273;23629;-78
2022/02/25 03:20:44;;;;;;;2.60;1.50;;;;;;;5.89;59.80;100000.58;108691;1272;22992;-79
2022/02/25 03:23:13;;;;;;;1.70;1.00;;;;;;;5.81;60.01;100008.70;108548;1273;22011;-78
2022/02/25 03:25:42;;;;;;;1.50;1.10;;;;;;;5.75;60.32;100003.59;108764;1270;21990;-78
2022/02/25 03:28:12;;;;;;;3.70;1.40;;;;;;;5.73;60.44;100004.15;108687;1273;21992;-79
2022/02/25 03:30:41;;;;;;;2.90;1.30;;;;;;;5.72;60.62;100004.48;108747;1270;21997;-79
2022/02/25 03:33:10;;;;;;;2.10;1.50;;;;;;;5.69;60.66;100003.52;108751;1270;21995;-80
2022/02/25 03:35:39;;;;;;;4.10;2.10;;;;;;;5.65;60.74;100017.48;108827;1270;24320;-78
2022/02/25 03:38:08;;;;;;;2.50;1.80;;;;;;;5.60;60.85;100028.95;108808;1270;22085;-78
2022/02/25 03:40:37;;;;;;;3.00;1.80;;;;;;;5.56;60.84;100033.73;108722;1273;22001;-79
2022/02/25 03:43:06;;;;;;;2.80;1.10;;;;;;;5.50;60.92;100037.42;108789;1270;23580;-77
2022/02/25 03:45:38;;;;;;;;;;;;;;;5.44;61.01;100040.58;108717;1273;21983;-78
2022/02/25 03:48:07;;;;;;;2.50;1.40;;;;;;;5.34;61.26;100041.16;108772;1273;22038;-80
2022/02/25 03:50:38;;;;;;;1.40;1.20;;;;;;;5.31;61.34;100049.89;108826;1270;21994;-79
2022/02/25 03:53:07;;;;;;;2.20;1.60;;;;;;;5.29;61.24;100051.44;108613;1273;22719;-79
2022/02/25 03:55:35;;;;;;;2.30;1.60;;;;;;;5.28;61.32;100053.75;108792;1270;21999;-79
2022/02/25 03:58:04;;;;;;;1.90;1.40;;;;;;;5.29;61.39;100049.80;108788;1273;23717;-79
2022/02/25 04:00:34;;;;;;;2.60;1.40;;;;;;;5.32;61.44;100056.55;108738;1273;24187;-79
2022/02/25 04:03:03;;;;;;;1.60;1.20;;;;;;;5.32;61.36;100063.50;108806;1270;22011;-78
2022/02/25 04:05:32;;;;;;;2.40;1.60;;;;;;;5.32;61.45;100064.25;108706;1270;23623;-79
2022/02/25 04:08:01;;;;;;;2.50;1.90;;;;;;;5.33;61.46;100074.73;108775;1270;21988;-79
2022/02/25 04:10:33;;;;;;;3.90;1.90;;;;;;;5.34;61.51;100081.65;108783;1270;23605;-79
2022/02/25 04:13:02;;;;;;;2.20;1.90;;;;;;;5.33;61.39;100081.55;108797;1270;22093;-79
2022/02/25 04:15:33;;;;;;;4.50;2.50;;;;;;;5.30;61.34;100082.25;108754;1270;22001;-79
2022/02/25 04:18:03;;;;;;;3.10;1.60;;;;;;;5.26;61.32;100088.16;108804;1272;22830;-78
2022/02/25 04:20:32;;;;;;;2.20;1.70;;;;;;;5.23;61.32;100094.09;108753;1273;21988;-79
2022/02/25 04:23:02;;;;;;;2.10;1.50;;;;;;;5.18;61.34;100095.16;108806;1270;21986;-79
2022/02/25 04:25:31;;;;;;;1.40;1.20;;;;;;;5.16;61.39;100094.45;108728;1270;22014;-78
2022/02/25 04:28:01;;;;;;;2.10;1.40;;;;;;;5.16;61.44;100098.52;108732;1273;23440;-79
2022/02/25 04:30:33;;;;;;;2.50;1.90;;;;;;;5.14;61.35;100103.95;108725;1270;22010;-79
2022/02/25 04:33:03;;;;;;;2.00;1.60;;;;;;;5.10;61.40;100102.17;108677;1273;23736;-79
2022/02/25 04:35:36;;;;;;;3.60;2.00;;;;;;;5.07;61.35;100108.80;108786;1273;22968;-79
2022/02/25 04:38:05;;;;;;;6.40;2.20;;;;;;;5.01;61.24;100113.81;108808;1270;23037;-79
2022/02/25 04:40:37;;;;;;;2.80;2.10;;;;;;;4.96;61.28;100119.21;108716;1273;23034;-79
2022/02/25 04:43:07;;;;;;;2.50;2.00;;;;;;;4.88;61.13;100115.12;108753;1270;21999;-78
2022/02/25 04:45:37;;;;;;;2.20;1.80;;;;;;;4.81;61.11;100114.88;108760;1270;21986;-78
2022/02/25 04:48:06;;;;;;;2.20;2.00;;;;;;;4.78;61.15;100116.21;108617;1273;21995;-79
2022/02/25 04:50:35;;;;;;;2.30;1.80;;;;;;;4.76;61.14;100123.77;108775;1270;23621;-79
2022/02/25 04:53:04;;;;;;;5.90;2.40;;;;;;;4.73;61.01;100128.04;108776;1273;21994;-79
2022/02/25 04:55:33;;;;;;;2.70;2.30;;;;;;;4.72;61.00;100132.33;108768;1270;23547;-79
2022/02/25 04:58:02;;;;;;;2.90;2.20;;;;;;;4.70;60.88;100137.52;108764;1273;21999;-80
2022/02/25 05:00:31;;;;;;;5.80;2.50;;;;;;;4.66;60.82;100144.66;108740;1272;23717;-80
2022/02/25 05:03:00;;;;;;;4.30;2.40;;;;;;;4.61;60.67;100154.89;108675;1270;22050;-80
2022/02/25 05:05:29;;;;;;;3.50;2.40;;;;;;;4.54;60.55;100157.05;108772;1273;22003;-80
2022/02/25 05:07:59;;;;;;;3.90;2.10;;;;;;;4.48;60.52;100161.08;108820;1270;22451;-79
2022/02/25 05:10:29;;;;;;;3.20;2.10;;;;;;;4.40;60.55;100171.89;108803;1272;21989;-79
2022/02/25 05:12:58;;;;;;;2.80;2.10;;;;;;;4.35;60.59;100179.14;108842;1270;22015;-79
2022/02/25 05:21:02;;;;;;;3.20;2.20;;;;;;;4.23;60.56;100205.23;108805;1270;22011;-79
2022/02/25 05:23:32;;;;;;;5.10;2.10;;;;;;;4.23;60.56;100207.69;108747;1270;22096;-79
2022/02/25 05:26:01;;;;;;;3.00;1.60;;;;;;;4.23;60.53;100210.83;108770;1273;24151;-78
2022/02/25 05:28:30;;;;;;;4.30;2.60;;;;;;;4.21;60.33;100216.93;108882;1270;22002;-80
2022/02/25 05:30:58;;;;;;;3.80;2.50;;;;;;;4.18;60.23;100223.98;108821;1272;21995;-80
2022/02/25 05:33:28;;;;;;;4.60;2.70;;;;;;;4.15;60.15;100231.24;108858;1270;22054;-80
2022/02/25 05:35:56;;;;;;;4.90;3.00;;;;;;;4.11;60.11;100235.16;108816;1270;21979;-77
2022/02/25 05:38:26;;;;;;;4.90;3.80;;;;;;;4.07;60.02;100236.53;108762;1270;22020;-79
2022/02/25 05:40:55;;;;;;;7.10;5.10;;;;;;;4.04;59.89;100241.20;108751;1273;22099;-78
2022/02/25 05:43:25;;;;;;;6.90;5.30;;;;;;;4.01;59.85;100249.10;108866;1270;22064;-80
2022/02/25 05:45:53;;;;;;;9.30;4.60;;;;;;;3.99;59.84;100255.05;108829;1270;21998;-78
2022/02/25 05:48:23;;;;;;;5.10;3.30;;;;;;;3.96;59.70;100259.65;108887;1270;23056;-80
2022/02/25 05:50:54;;;;;;;10.00;6.20;;;;;;;3.92;59.60;100264.28;108782;1272;21998;-79
2022/02/25 05:53:22;;;;;;;15.00;8.80;;;;;;;3.89;59.59;100266.63;108801;1270;22672;-80
2022/02/25 05:55:51;;;;;;;13.90;9.00;;;;;;;3.89;59.51;100272.60;108769;1273;22011;-77
2022/02/25 05:58:20;;;;;;;10.90;7.20;;;;;;;3.89;59.44;100278.54;108753;1273;22007;-79
2022/02/25 06:00:49;;;;;;;8.70;6.60;;;;;;;3.90;59.46;100279.86;108748;1270;21996;-79
2022/02/25 06:03:18;;;;;;;7.40;4.70;;;;;;;3.90;59.39;100283.49;108692;1273;23152;-79
2022/02/25 06:05:47;;;;;;;7.10;4.50;;;;;;;3.88;59.29;100292.17;108881;1270;22061;-78
2022/02/25 06:08:16;;;;;;;7.00;4.30;;;;;;;3.86;59.34;100293.02;108735;1273;22004;-77
2022/02/25 06:10:45;;;;;;;8.10;3.90;;;;;;;3.84;59.30;100300.52;108755;1273;23789;-78
2022/02/25 06:13:14;;;;;;;6.60;3.80;;;;;;;3.83;59.25;100302.74;108777;1273;22001;-79
2022/02/25 06:15:44;;;;;;;5.00;2.50;;;;;;;3.80;59.24;100307.27;108782;1273;22001;-78
2022/02/25 06:18:15;;;;;;;4.90;2.10;;;;;;;3.77;59.23;100311.34;108569;1276;21992;-77
2022/02/25 06:20:45;;;;;;;4.40;2.20;;;;;;;3.75;59.23;100317.73;108459;1276;21999;-78
2022/02/25 06:23:13;;;;;;;6.20;3.00;;;;;;;3.75;59.25;100319.73;108527;1275;22072;-79
2022/02/25 06:25:42;;;;;;;7.40;3.20;;;;;;;3.75;59.27;100323.55;108780;1276;24307;-78
2022/02/25 06:28:11;;;;;;;8.70;4.50;;;;;;;3.77;59.25;100325.83;108517;1273;22015;-77
2022/02/25 06:30:41;;;;;;;8.10;3.80;;;;;;;3.79;59.28;100333.34;108539;1274;23029;-78
2022/02/25 06:33:10;;;;;;;7.90;3.80;;;;;;;3.80;59.34;100340.70;108441;1276;22000;-78
2022/02/25 06:35:40;;;;;;;9.70;4.50;;;;;;;3.83;59.40;100349.59;108538;1273;22002;-81
2022/02/25 06:38:09;;;;;;;8.00;4.90;;;;;;;3.87;59.58;100347.87;108894;1273;21945;-78
2022/02/25 06:40:38;;;;;;;10.20;6.00;;;;;;;3.93;59.94;100354.28;108798;1272;23702;-77
2022/02/25 06:43:10;;;;;;;16.10;7.90;;;;;;;4.00;60.03;100358.13;109035;1272;22384;-78
2022/02/25 06:45:39;;;;;;;9.80;5.90;;;;;;;4.03;59.94;100362.09;108741;1273;21990;-77
2022/02/25 06:48:09;;;;;;;9.90;5.30;;;;;;;4.04;60.03;100366.33;108738;1273;22014;-79
2022/02/25 06:50:38;;;;;;;9.70;6.20;;;;;;;4.06;60.31;100373.88;108811;1273;23623;-77
2022/02/25 06:53:10;;;;;;;25.50;13.60;;;;;;;4.12;60.73;100372.31;108979;1272;23726;-78
2022/02/25 06:55:40;;;;;;;18.00;10.90;;;;;;;4.16;60.64;100379.62;108807;1273;23625;-78
2022/02/25 06:58:11;;;;;;;18.90;11.20;;;;;;;4.20;60.81;100383.95;108829;1272;21995;-76
2022/02/25 07:00:40;;;;;;;11.50;6.60;;;;;;;4.28;61.15;100387.02;108719;1272;22147;-77
2022/02/25 07:03:10;;;;;;;10.90;7.90;;;;;;;4.34;61.21;100390.47;108650;1270;23605;-77
2022/02/25 07:05:41;;;;;;;18.30;9.90;;;;;;;4.42;61.36;100391.79;108732;1270;23632;-77
2022/02/25 07:08:11;;;;;;;12.30;7.50;;;;;;;4.48;61.34;100395.95;108532;1273;22001;-78
2022/02/25 07:10:41;;;;;;;16.40;10.80;;;;;;;4.52;61.19;100399.88;108725;1273;23696;-78
2022/02/25 07:13:11;;;;;;;14.20;9.40;;;;;;;4.48;61.04;100403.11;108548;1273;227524;-77
2022/02/25 07:15:41;;;;;;;14.10;9.30;;;;;;;4.48;61.13;100410.27;108774;1273;22056;-78
2022/02/25 07:18:10;;;;;;;14.60;8.90;;;;;;;4.48;61.11;100419.14;108731;1276;22329;-79
2022/02/25 07:21:02;;;;;;;14.30;8.50;;;;;;;4.48;61.26;100427.67;108425;1276;23078;-78
2022/02/25 07:23:31;;;;;;;;;;;;;;;4.51;61.37;100433.09;108320;1279;23612;-78
2022/02/25 07:26:01;;;;;;;12.50;8.10;;;;;;;4.49;61.61;100437.73;108423;1276;21994;-78
2022/02/25 07:28:30;;;;;;;12.20;7.70;;;;;;;4.53;61.45;100435.83;108688;1276;22030;-76
2022/02/25 07:30:59;;;;;;;7.80;4.90;;;;;;;4.61;61.55;100440.92;108224;1277;23648;-78
2022/02/25 07:33:31;;;;;;;;;;;;;;;4.71;61.50;100447.63;108343;1277;21984;-78
2022/02/25 07:36:01;;;;;;;10.70;5.60;;;;;;;4.80;61.74;100452.14;108368;1278;22036;-77
2022/02/25 07:38:30;;;;;;;10.60;6.60;;;;;;;5.02;62.15;100458.48;108605;1273;21991;-78
2022/02/25 07:40:59;;;;;;;10.70;7.30;;;;;;;5.27;61.70;100459.33;108654;1277;21979;-78
2022/02/25 07:43:28;;;;;;;9.20;5.60;;;;;;;5.42;60.93;100463.12;108715;1276;22001;-78
2022/02/25 07:45:57;;;;;;;7.40;4.90;;;;;;;5.53;60.50;100469.64;108390;1275;22260;-77
2022/02/25 07:48:27;;;;;;;6.80;4.70;;;;;;;5.62;60.28;100466.95;108404;1276;23795;-77
2022/02/25 07:50:56;;;;;;;7.20;4.90;;;;;;;5.66;59.69;100473.27;108386;1276;23065;-79
2022/02/25 07:53:28;;;;;;;5.00;3.80;;;;;;;5.65;59.31;100477.36;108506;1275;22052;-77
2022/02/25 07:55:58;;;;;;;8.40;4.80;;;;;;;5.71;59.63;100484.73;108360;1276;22011;-77
2022/02/25 07:58:28;;;;;;;5.70;3.40;;;;;;;5.93;60.09;100486.52;108468;1273;22429;-77
2022/02/25 08:00:57;;;;;;;6.70;3.40;;;;;;;6.04;59.08;100489.00;108412;1276;22008;-77
2022/02/25 08:03:32;;;;;;;5.10;2.90;;;;;;;6.03;58.15;100490.66;108478;1273;22091;-78
2022/02/25 08:06:02;;;;;;;8.70;4.40;;;;;;;5.99;58.02;100491.20;108751;1276;22490;-78
2022/02/25 08:08:32;;;;;;;6.30;4.40;;;;;;;6.07;58.70;100494.20;108503;1276;23634;-78
2022/02/25 08:11:01;;;;;;;6.80;4.30;;;;;;;6.40;59.76;100493.86;108742;1274;22075;-77
2022/02/25 08:13:32;;;;;;;7.80;4.90;;;;;;;6.73;59.19;100495.42;108981;1273;22039;-78
2022/02/25 08:16:01;;;;;;;25.80;13.60;;;;;;;7.12;59.01;100503.05;109069;1272;23623;-78
2022/02/25 08:18:33;;;;;;;8.60;5.00;;;;;;;7.63;59.37;100505.14;109025;1272;23744;-78
2022/02/25 08:21:02;;;;;;;8.50;5.90;;;;;;;8.07;57.63;100506.88;108939;1272;23039;-79
2022/02/25 08:23:33;;;;;;;9.80;5.20;;;;;;;8.40;56.18;100509.48;108982;1273;22762;-78
2022/02/25 08:26:05;;;;;;;5.20;3.50;;;;;;;8.64;54.51;100508.75;108598;1278;22880;-79
2022/02/25 08:28:37;;;;;;;7.10;4.00;;;;;;;8.80;53.65;100513.50;108441;1279;21998;-77
2022/02/25 08:31:11;;;;;;;7.40;4.40;;;;;;;9.05;53.40;100517.11;108310;1279;23146;-78
2022/02/25 08:33:41;;;;;;;7.70;4.60;;;;;;;9.40;52.95;100515.47;108356;1282;22798;-78
2022/02/25 08:36:10;;;;;;;8.80;5.60;;;;;;;9.70;51.86;100522.09;108352;1281;22000;-76
2022/02/25 08:38:40;;;;;;;8.50;4.40;;;;;;;9.92;50.40;100522.17;108122;1281;22872;-78
2022/02/25 08:41:10;;;;;;;8.10;4.00;;;;;;;9.70;48.39;100522.61;108423;1281;22308;-78
2022/02/25 08:43:42;;;;;;;5.90;3.00;;;;;;;9.36;48.17;100530.89;108373;1276;23896;-79
2022/02/25 08:46:12;;;;;;;7.20;4.00;;;;;;;9.06;48.83;100531.69;108813;1276;21996;-79
2022/02/25 08:48:41;;;;;;;11.60;4.10;;;;;;;9.05;50.07;100537.55;108721;1276;23632;-79
2022/02/25 08:51:10;;;;;;;9.10;3.90;;;;;;;9.28;50.61;100534.84;108546;1276;22996;-79
2022/02/25 08:53:40;;;;;;;6.60;4.50;;;;;;;9.47;49.86;100536.77;108814;1272;22020;-80
2022/02/25 08:56:12;;;;;;;24.80;16.40;;;;;;;9.45;48.85;100542.23;108785;1273;21955;-78
2022/02/25 08:58:45;;;;;;;12.60;6.60;;;;;;;9.22;48.22;100549.00;108872;1272;22102;-77
2022/02/25 09:01:14;;;;;;;8.80;4.30;;;;;;;8.88;48.07;100551.66;108823;1272;23811;-76
2022/02/25 09:03:47;;;;;;;8.20;3.80;;;;;;;8.47;48.35;100555.22;108896;1273;22101;-78
2022/02/25 09:06:16;;;;;;;9.80;3.80;;;;;;;8.15;48.92;100555.61;108742;1272;21991;-77
2022/02/25 09:08:46;;;;;;;8.20;3.70;;;;;;;7.90;49.56;100558.29;108673;1278;22016;-78
2022/02/25 09:11:15;;;;;;;9.30;3.90;;;;;;;7.70;49.89;100564.45;108634;1276;22071;-78
2022/02/25 09:13:46;;;;;;;7.80;4.30;;;;;;;7.49;50.13;100567.09;108417;1276;23760;-78
2022/02/25 09:16:15;;;;;;;10.10;5.60;;;;;;;7.38;50.99;100564.77;108420;1276;22458;-78
2022/02/25 09:18:48;;;;;;;11.70;6.00;;;;;;;7.49;52.27;100563.21;108431;1276;22123;-79
2022/02/25 09:21:18;;;;;;;10.10;4.90;;;;;;;7.78;52.81;100569.79;108397;1278;22980;-79
2022/02/25 09:23:51;;;;;;;9.40;4.70;;;;;;;8.00;52.37;100569.97;108598;1276;24612;-78
2022/02/25 09:26:20;;;;;;;9.80;5.40;;;;;;;8.20;52.00;100570.08;108747;1273;21992;-77
2022/02/25 09:28:53;;;;;;;19.00;5.20;;;;;;;8.47;52.05;100566.45;108791;1272;22099;-77
2022/02/25 09:31:22;;;;;;;;;;;;;;;8.79;51.77;100569.64;108608;1278;23600;-78
2022/02/25 09:33:51;;;;;;;9.10;4.50;;;;;;;9.01;51.09;100566.70;108466;1276;22020;-78
2022/02/25 09:36:23;;;;;;;6.90;3.40;;;;;;;9.15;50.22;100570.07;108126;1283;23746;-77
2022/02/25 09:38:52;;;;;;;8.00;4.80;;;;;;;9.19;48.99;100577.27;107951;1284;22261;-77
2022/02/25 09:41:22;;;;;;;10.60;5.20;;;;;;;9.25;49.34;100582.80;107792;1283;22014;-78
2022/02/25 09:43:53;;;;;;;12.60;5.30;;;;;;;9.45;49.06;100578.19;107636;1286;23215;-77
2022/02/25 09:46:23;;;;;;;10.20;5.80;;;;;;;9.52;48.26;100580.59;107823;1286;23030;-78
2022/02/25 09:48:56;;;;;;;9.30;4.60;;;;;;;9.58;48.15;100583.48;107908;1279;22000;-78
2022/02/25 09:51:28;;;;;;;10.50;4.80;;;;;;;9.60;47.52;100578.14;108255;1279;22785;-77
2022/02/25 09:53:58;;;;;;;;;;;;;;;9.55;47.15;100585.24;108204;1276;22004;-77
2022/02/25 09:56:28;;;;;;;9.60;4.10;;;;;;;9.35;46.84;100592.39;108441;1276;23563;-77
2022/02/25 09:58:57;;;;;;;8.50;5.20;;;;;;;9.23;47.30;100594.73;108392;1276;21984;-79
2022/02/25 10:01:33;;;;;;;11.90;5.30;;;;;;;9.31;47.91;100597.77;108605;1272;22158;-78
2022/02/25 10:04:20;;;;;;;9.30;5.00;;;;;;;9.51;48.07;100601.94;108503;1273;22917;-77
2022/02/25 10:06:50;;;;;;;8.80;4.00;;;;;;;9.84;48.22;100603.95;108207;1279;23628;-79
2022/02/25 10:09:38;;;;;;;8.40;3.60;;;;;;;10.06;47.19;100603.55;108457;1279;22521;-78
2022/02/25 10:12:13;;;;;;;7.90;3.60;;;;;;;10.21;46.81;100605.21;108666;1278;22032;-78
2022/02/25 10:14:48;;;;;;;8.80;3.60;;;;;;;10.23;45.52;100607.70;108126;1278;23061;-78
2022/02/25 10:17:24;;;;;;;11.10;6.60;;;;;;;10.16;45.42;100608.14;108257;1279;23676;-78
2022/02/25 10:20:00;;;;;;;7.20;3.60;;;;;;;10.31;45.91;100603.61;108189;1278;22033;-78
2022/02/25 10:22:41;;;;;;;8.40;3.90;;;;;;;10.59;46.08;100601.40;108439;1278;23723;-78
2022/02/25 10:25:12;;;;;;;8.00;4.40;;;;;;;11.01;46.03;100601.38;108380;1273;23673;-78
2022/02/25 10:27:45;;;;;;;8.70;6.00;;;;;;;11.44;45.30;100606.37;108526;1274;22022;-78
2022/02/25 10:30:18;;;;;;;9.30;4.00;;;;;;;11.91;44.80;100604.62;108833;1273;22003;-78
2022/02/25 10:32:54;;;;;;;10.70;4.70;;;;;;;12.38;43.37;100604.46;108832;1272;22492;-78
2022/02/25 10:35:30;;;;;;;9.20;4.00;;;;;;;12.81;42.69;100607.55;108635;1273;23056;-77
2022/02/25 10:38:04;;;;;;;11.10;3.50;;;;;;;13.28;41.87;100607.81;108902;1271;22055;-77
2022/02/25 10:40:43;;;;;;;7.50;3.90;;;;;;;13.84;40.97;100605.06;108492;1275;23130;-76
2022/02/25 10:43:45;;;;;;;5.70;2.80;;;;;;;14.30;39.96;100605.21;108483;1276;22608;-79
2022/02/25 10:46:15;;;;;;;8.30;3.20;;;;;;;14.81;38.73;100609.23;108102;1285;23661;-78
2022/02/25 10:48:46;;;;;;;7.50;3.00;;;;;;;15.39;37.77;100618.58;107533;1288;22066;-77
2022/02/25 10:51:23;;;;;;;2.90;2.10;;;;;;;15.66;36.83;100615.90;107601;1288;23647;-76
2022/02/25 10:53:52;;;;;;;4.90;2.50;;;;;;;15.91;35.34;100617.63;107537;1288;22592;-77
2022/02/25 10:56:21;;;;;;;6.10;2.70;;;;;;;15.58;33.57;100619.77;107820;1288;23122;-78
2022/02/25 10:58:55;;;;;;;8.20;4.00;;;;;;;14.79;33.43;100619.96;107902;1282;22019;-77
2022/02/25 11:01:36;;;;;;;5.30;2.30;;;;;;;14.18;34.64;100619.95;107999;1282;22020;-78
2022/02/25 11:04:18;;;;;;;9.00;3.60;;;;;;;14.16;35.09;100619.97;107980;1279;22000;-78
2022/02/25 11:06:49;;;;;;;6.40;3.70;;;;;;;14.33;34.98;100625.91;108462;1276;23719;-78
2022/02/25 11:09:18;;;;;;;8.00;3.80;;;;;;;14.98;35.89;100622.65;108558;1276;22370;-78
2022/02/25 11:11:47;;;;;;;6.50;2.70;;;;;;;15.80;34.68;100626.13;108545;1276;23007;-78
2022/02/25 11:14:17;;;;;;;9.00;3.80;;;;;;;16.54;33.52;100630.21;108473;1276;22030;-78
2022/02/25 11:16:46;;;;;;;6.20;3.70;;;;;;;17.09;31.90;100625.77;108576;1276;23068;-78
2022/02/25 11:19:25;;;;;;;6.70;3.90;;;;;;;17.28;31.51;100629.98;108490;1276;22009;-77
2022/02/25 11:21:54;;;;;;;11.10;3.30;;;;;;;17.31;29.72;100633.45;108479;1276;22003;-77
2022/02/25 11:24:24;;;;;;;6.00;3.30;;;;;;;16.25;28.44;100636.57;108828;1272;23075;-77
2022/02/25 11:27:16;;;;;;;7.70;2.70;;;;;;;14.58;29.23;100629.98;108725;1272;23095;-77
2022/02/25 11:30:17;;;;;;;3.70;2.20;;;;;;;13.16;31.04;100627.22;108700;1272;22255;-78
2022/02/25 11:33:11;;;;;;;9.30;3.50;;;;;;;12.13;32.98;100622.86;108661;1273;22292;-77
2022/02/25 11:36:02;;;;;;;6.90;3.30;;;;;;;11.42;34.01;100627.45;108589;1273;21998;-77
2022/02/25 11:38:42;;;;;;;6.40;2.80;;;;;;;10.89;34.79;100619.70;108633;1272;23682;-77
2022/02/25 11:41:14;;;;;;;7.90;4.60;;;;;;;10.46;35.39;100613.67;108786;1272;22001;-77
2022/02/25 11:43:47;;;;;;;5.90;3.10;;;;;;;10.13;35.92;100616.42;108819;1272;22042;-79
2022/02/25 11:46:37;;;;;;;9.50;4.00;;;;;;;9.83;36.26;100618.25;108805;1273;22101;-77
2022/02/25 11:49:23;;;;;;;7.00;3.00;;;;;;;9.57;36.89;100619.02;108576;1272;23044;-77